Time;durP1;ratioP1;P1;durP2;ratioP2;P2;SDS_P1;SDS_P2;PMS_P1;PMS_P2;Temp;Humidity;BMP_temperature;BMP_pressure;BME280_temperature;BME280_humidity;BME280_pressure;Samples;Min_cycle;Max_cycle;Signal;HPM_P1;HPM_P2
2022/07/11 00:00:15;;;;;;;10.27;3.22;;;21.80;77.70;;;;;;4956244;28;20196;-78
2022/07/11 00:02:43;;;;;;;6.35;3.20;;;21.80;77.70;;;;;;4959610;28;20683;-78
2022/07/11 00:05:12;;;;;;;5.18;3.10;;;21.80;77.70;;;;;;4956159;28;20846;-78
2022/07/11 00:07:40;;;;;;;4.93;2.92;;;21.80;77.70;;;;;;4943225;28;20211;-78
2022/07/11 00:10:09;;;;;;;4.68;2.97;;;21.80;77.80;;;;;;4953984;28;20199;-79
2022/07/11 00:12:38;;;;;;;5.22;3.28;;;21.70;77.80;;;;;;4955060;28;20194;-78
2022/07/11 00:15:09;;;;;;;7.45;3.03;;;21.70;77.70;;;;;;4959024;28;20227;-79
2022/07/11 00:17:37;;;;;;;7.55;3.03;;;21.70;77.80;;;;;;4963538;28;20214;-79
2022/07/11 00:20:06;;;;;;;5.10;2.97;;;21.70;77.70;;;;;;4958712;28;20636;-78
2022/07/11 00:22:35;;;;;;;5.53;3.63;;;21.70;77.80;;;;;;4957900;28;20202;-78
2022/07/11 00:25:03;;;;;;;5.73;2.67;;;21.60;77.70;;;;;;4911577;29;20207;-79
2022/07/11 00:27:32;;;;;;;4.80;2.83;;;21.60;77.70;;;;;;4958647;28;20274;-79
2022/07/11 00:30:00;;;;;;;6.23;3.07;;;21.60;77.70;;;;;;4958746;28;20210;-79
2022/07/11 00:32:30;;;;;;;7.72;2.97;;;21.60;77.80;;;;;;4954058;28;20222;-79
2022/07/11 00:34:58;;;;;;;5.80;3.70;;;21.50;77.80;;;;;;4957382;28;20835;-78
2022/07/11 00:37:27;;;;;;;7.33;2.70;;;21.50;77.90;;;;;;4953481;28;20213;-79
2022/07/11 00:39:55;;;;;;;5.60;2.83;;;21.50;78.00;;;;;;4956719;28;20206;-79
2022/07/11 00:42:23;;;;;;;5.03;3.03;;;21.40;77.90;;;;;;4961187;28;20293;-79
2022/07/11 00:44:52;;;;;;;8.70;3.20;;;21.40;78.00;;;;;;4951159;28;20302;-77
2022/07/11 00:47:20;;;;;;;4.77;3.27;;;21.40;78.20;;;;;;4952364;28;20215;-80
2022/07/11 00:49:50;;;;;;;7.00;2.97;;;21.40;78.10;;;;;;4963503;28;20209;-78
2022/07/11 00:52:20;;;;;;;5.73;3.60;;;21.30;78.00;;;;;;4958057;28;20781;-78
2022/07/11 00:54:48;;;;;;;7.68;3.38;;;21.30;78.00;;;;;;4950482;28;20225;-79
2022/07/11 00:57:16;;;;;;;7.57;3.47;;;21.30;78.00;;;;;;4958426;28;20214;-78
2022/07/11 00:59:46;;;;;;;6.38;3.33;;;21.30;78.20;;;;;;4950155;28;20203;-78
2022/07/11 01:02:14;;;;;;;9.82;3.33;;;21.30;78.20;;;;;;4951401;28;20206;-79
2022/07/11 01:04:43;;;;;;;4.63;2.90;;;21.30;78.20;;;;;;4954593;28;20568;-79
2022/07/11 01:07:13;;;;;;;7.37;3.83;;;21.30;78.30;;;;;;4948439;28;20847;-79
2022/07/11 01:09:42;;;;;;;6.03;3.50;;;21.30;78.50;;;;;;4948802;28;20885;-79
2022/07/11 01:12:10;;;;;;;4.97;3.20;;;21.30;78.50;;;;;;4950751;28;20195;-79
2022/07/11 01:14:39;;;;;;;5.40;3.30;;;21.20;78.50;;;;;;4958424;28;20202;-77
2022/07/11 01:17:07;;;;;;;7.90;3.30;;;21.30;78.60;;;;;;4962708;28;20202;-79
2022/07/11 01:19:36;;;;;;;7.50;3.43;;;21.20;78.60;;;;;;4959362;28;20198;-80
2022/07/11 01:22:06;;;;;;;5.27;3.30;;;21.20;78.60;;;;;;4966123;28;20199;-79
2022/07/11 01:24:36;;;;;;;11.27;3.33;;;21.20;78.70;;;;;;4966139;28;20203;-80
2022/07/11 01:27:07;;;;;;;6.00;3.30;;;21.20;78.80;;;;;;4964474;28;20206;-78
2022/07/11 01:29:36;;;;;;;8.90;3.63;;;21.20;78.80;;;;;;4958380;28;20715;-79
2022/07/11 01:32:05;;;;;;;6.03;3.50;;;21.10;78.80;;;;;;4960994;28;20654;-79
2022/07/11 01:34:34;;;;;;;6.20;3.60;;;21.10;78.90;;;;;;4952055;28;20241;-77
2022/07/11 01:37:02;;;;;;;5.13;3.38;;;21.10;78.90;;;;;;4960098;28;20309;-79
2022/07/11 01:39:31;;;;;;;6.60;3.67;;;21.10;78.90;;;;;;4965729;28;20213;-79
2022/07/11 01:42:00;;;;;;;5.27;3.47;;;21.10;78.90;;;;;;4960994;28;20214;-79
2022/07/11 01:44:29;;;;;;;6.67;3.00;;;21.10;78.90;;;;;;4956622;28;20250;-78
2022/07/11 01:46:57;;;;;;;7.20;3.50;;;21.10;78.90;;;;;;4965302;28;20206;-79
2022/07/11 01:49:29;;;;;;;6.63;2.97;;;21.10;78.90;;;;;;4960501;28;20209;-79
2022/07/11 01:51:58;;;;;;;4.80;3.10;;;21.10;79.00;;;;;;4962001;28;20209;-83
2022/07/11 01:54:26;;;;;;;6.40;3.30;;;21.10;79.20;;;;;;4957162;28;20583;-79
2022/07/11 01:56:55;;;;;;;5.13;3.50;;;21.00;79.20;;;;;;4955459;28;20270;-79
2022/07/11 01:59:25;;;;;;;4.47;3.07;;;21.00;79.20;;;;;;4951598;28;20211;-79
2022/07/11 02:01:53;;;;;;;5.83;3.70;;;21.00;79.40;;;;;;4947718;28;20569;-80
2022/07/11 02:04:22;;;;;;;7.80;3.93;;;21.00;79.30;;;;;;4959728;28;20245;-79
2022/07/11 02:06:53;;;;;;;4.57;2.83;;;21.00;79.40;;;;;;4953480;28;20793;-80
2022/07/11 02:09:22;;;;;;;6.53;3.30;;;21.00;79.40;;;;;;4963130;28;20245;-80
2022/07/11 02:11:50;;;;;;;5.87;3.07;;;21.00;79.50;;;;;;4953810;28;20195;-80
2022/07/11 02:14:19;;;;;;;7.07;3.67;;;21.00;79.50;;;;;;4959446;28;20285;-79
2022/07/11 02:16:49;;;;;;;5.47;3.53;;;21.10;79.50;;;;;;4957159;28;20218;-80
2022/07/11 02:19:18;;;;;;;7.00;3.57;;;21.10;79.70;;;;;;4955836;28;20675;-80
2022/07/11 02:21:46;;;;;;;6.77;3.70;;;21.00;79.60;;;;;;4959710;28;20190;-80
2022/07/11 02:24:14;;;;;;;5.17;3.23;;;21.00;79.70;;;;;;4962380;28;20209;-80
2022/07/11 02:26:43;;;;;;;7.73;3.77;;;21.00;79.80;;;;;;4952970;28;20613;-80
2022/07/11 02:29:11;;;;;;;7.07;3.33;;;21.00;79.90;;;;;;4946259;28;20230;-80
2022/07/11 02:31:40;;;;;;;5.63;3.87;;;21.00;80.20;;;;;;4949707;28;20405;-79
2022/07/11 02:34:09;;;;;;;6.50;3.77;;;20.90;80.10;;;;;;4948126;28;20732;-79
2022/07/11 02:36:38;;;;;;;6.53;3.70;;;20.90;80.20;;;;;;4948498;28;20218;-80
2022/07/11 02:39:06;;;;;;;5.87;3.40;;;20.90;80.10;;;;;;4943557;28;20206;-79
2022/07/11 02:41:35;;;;;;;5.73;3.40;;;20.90;80.00;;;;;;4943849;28;20206;-79
2022/07/11 02:44:03;;;;;;;5.70;3.57;;;20.90;80.00;;;;;;4957683;28;20232;-80
2022/07/11 02:46:32;;;;;;;7.70;3.83;;;20.90;80.80;;;;;;4960432;28;20194;-80
2022/07/11 02:49:00;;;;;;;7.50;3.10;;;20.90;79.90;;;;;;4957006;28;20234;-79
2022/07/11 02:51:30;;;;;;;7.77;3.33;;;20.90;79.90;;;;;;4955190;28;20213;-79
2022/07/11 02:53:59;;;;;;;7.23;3.80;;;20.90;80.00;;;;;;4953630;28;20195;-80
2022/07/11 02:56:27;;;;;;;7.10;3.63;;;20.90;80.10;;;;;;4954266;28;20219;-79
2022/07/11 02:58:55;;;;;;;6.10;3.30;;;20.80;80.10;;;;;;4961791;28;20203;-80
2022/07/11 03:01:27;;;;;;;8.50;3.83;;;20.80;80.10;;;;;;4955908;28;20668;-80
2022/07/11 03:03:55;;;;;;;8.17;3.30;;;20.80;80.20;;;;;;4949389;28;20206;-80
2022/07/11 03:06:26;;;;;;;7.43;3.70;;;20.80;80.40;;;;;;4952377;28;20947;-79
2022/07/11 03:08:56;;;;;;;9.13;3.53;;;20.80;80.60;;;;;;4953551;28;20199;-80
2022/07/11 03:11:24;;;;;;;8.30;4.07;;;20.80;80.70;;;;;;4967235;28;20206;-80
2022/07/11 03:13:52;;;;;;;6.77;3.27;;;20.80;80.80;;;;;;4967084;28;20199;-79
2022/07/11 03:16:22;;;;;;;7.47;3.20;;;20.80;80.70;;;;;;4974569;28;20221;-80
2022/07/11 03:18:51;;;;;;;6.90;3.50;;;20.80;80.70;;;;;;4911910;28;20231;-79
2022/07/11 03:21:19;;;;;;;5.50;3.67;;;20.80;80.70;;;;;;4953522;28;20205;-80
2022/07/11 03:23:49;;;;;;;8.33;3.60;;;20.80;80.70;;;;;;4962025;28;20204;-80
2022/07/11 03:26:19;;;;;;;5.13;3.80;;;20.80;80.70;;;;;;4953707;28;20190;-81
2022/07/11 03:28:48;;;;;;;9.53;3.90;;;20.90;80.70;;;;;;4956948;28;20199;-80
2022/07/11 03:31:16;;;;;;;6.87;3.87;;;20.80;80.70;;;;;;4949742;28;20257;-80
2022/07/11 03:33:44;;;;;;;8.37;3.43;;;20.90;80.80;;;;;;4962155;28;20262;-81
2022/07/11 03:36:13;;;;;;;6.85;3.30;;;20.90;80.80;;;;;;4959669;28;20298;-80
2022/07/11 03:38:42;;;;;;;5.13;3.20;;;20.90;81.00;;;;;;4969923;28;20203;-81
2022/07/11 03:41:12;;;;;;;7.23;3.80;;;21.00;81.00;;;;;;4973296;28;20270;-80
2022/07/11 03:43:43;;;;;;;8.27;3.70;;;21.10;81.10;;;;;;4966070;28;20409;-81
2022/07/11 03:46:12;;;;;;;9.70;3.53;;;21.10;81.00;;;;;;4969217;28;20255;-81
2022/07/11 03:48:44;;;;;;;6.03;3.72;;;21.10;80.90;;;;;;4963133;28;20187;-80
2022/07/11 03:51:12;;;;;;;10.73;4.13;;;21.20;81.00;;;;;;4922534;29;20194;-79
2022/07/11 03:53:44;;;;;;;6.60;3.47;;;21.20;80.90;;;;;;4959105;28;20199;-78
2022/07/11 03:56:16;;;;;;;6.23;3.37;;;21.20;80.80;;;;;;4965022;28;20207;-79
2022/07/11 03:58:46;;;;;;;9.35;3.67;;;21.20;80.80;;;;;;4963194;28;20218;-82
2022/07/11 04:01:15;;;;;;;10.68;3.75;;;21.30;80.80;;;;;;4959617;28;20254;-80
2022/07/11 04:03:44;;;;;;;4.93;3.37;;;21.30;80.80;;;;;;4973167;28;20195;-80
2022/07/11 04:06:13;;;;;;;8.57;4.20;;;21.30;80.80;;;;;;4974418;28;20194;-80
2022/07/11 04:08:42;;;;;;;11.45;4.75;;;21.40;80.90;;;;;;4970488;28;20194;-80
2022/07/11 04:11:11;;;;;;;6.05;3.30;;;21.40;80.90;;;;;;4963227;28;20266;-79
2022/07/11 04:13:40;;;;;;;7.05;3.40;;;21.40;80.80;;;;;;4967250;28;20199;-80
2022/07/11 04:16:14;;;;;;;7.05;4.18;;;21.50;80.90;;;;;;4954292;28;20235;-79
2022/07/11 04:18:42;;;;;;;5.82;3.58;;;21.50;80.90;;;;;;4967816;28;20191;-78
2022/07/11 04:21:11;;;;;;;6.15;3.22;;;21.60;80.90;;;;;;4952972;28;20218;-80
2022/07/11 04:23:39;;;;;;;5.63;3.47;;;21.60;80.90;;;;;;4965116;28;20213;-79
2022/07/11 04:26:09;;;;;;;6.00;3.92;;;21.70;81.00;;;;;;4962543;28;20194;-78
2022/07/11 04:28:38;;;;;;;6.25;3.95;;;21.70;81.10;;;;;;4954176;28;20218;-79
2022/07/11 04:31:06;;;;;;;7.10;3.75;;;21.70;81.10;;;;;;4954268;28;20202;-80
2022/07/11 04:33:36;;;;;;;5.43;3.80;;;21.80;81.20;;;;;;4962093;28;20237;-80
2022/07/11 04:36:05;;;;;;;5.68;3.40;;;21.80;81.30;;;;;;4955874;28;20286;-80
2022/07/11 04:38:33;;;;;;;7.20;3.38;;;21.90;81.30;;;;;;4950716;28;20215;-79
2022/07/11 04:41:01;;;;;;;6.35;2.63;;;21.90;81.20;;;;;;4951970;28;20207;-79
2022/07/11 04:43:30;;;;;;;6.20;2.40;;;22.00;80.90;;;;;;4950198;28;20776;-80
2022/07/11 04:45:59;;;;;;;5.57;2.83;;;22.10;80.60;;;;;;4956903;28;20198;-79
2022/07/11 04:48:28;;;;;;;4.68;2.63;;;22.10;80.70;;;;;;4954510;28;20208;-79
2022/07/11 04:50:58;;;;;;;4.22;2.33;;;22.20;79.90;;;;;;4947825;28;20198;-78
2022/07/11 04:53:26;;;;;;;5.88;2.50;;;22.20;79.60;;;;;;4957271;28;20194;-80
2022/07/11 04:55:55;;;;;;;4.60;2.50;;;22.30;79.30;;;;;;4939796;28;20194;-78
2022/07/11 04:58:23;;;;;;;4.78;2.15;;;22.30;79.00;;;;;;4956180;28;20305;-80
2022/07/11 05:00:52;;;;;;;4.25;2.38;;;22.40;78.80;;;;;;4954708;28;20871;-79
2022/07/11 05:03:20;;;;;;;10.98;2.63;;;22.50;78.60;;;;;;4954349;28;20231;-78
2022/07/11 05:05:49;;;;;;;5.00;2.78;;;22.60;78.30;;;;;;4948982;28;20214;-79
2022/07/11 05:08:19;;;;;;;4.90;2.30;;;22.60;78.20;;;;;;4949515;28;20746;-78
2022/07/11 05:10:47;;;;;;;5.30;2.70;;;22.60;77.60;;;;;;4943243;28;20199;-77
2022/07/11 05:13:16;;;;;;;8.02;2.55;;;22.70;77.50;;;;;;4937924;28;20196;-79
2022/07/11 05:15:44;;;;;;;7.10;3.00;;;22.70;77.50;;;;;;4951629;28;20205;-78
2022/07/11 05:18:13;;;;;;;4.55;2.85;;;22.70;77.20;;;;;;4940365;28;20215;-77
2022/07/11 05:20:45;;;;;;;6.65;3.08;;;22.80;77.00;;;;;;4941124;28;20221;-79
2022/07/11 05:23:13;;;;;;;7.63;3.53;;;22.80;76.90;;;;;;4940464;28;20298;-77
2022/07/11 05:25:43;;;;;;;5.40;3.78;;;22.80;76.70;;;;;;4953809;28;20746;-77
2022/07/11 05:28:11;;;;;;;6.07;3.72;;;22.90;76.70;;;;;;4945676;28;20221;-79
2022/07/11 05:30:40;;;;;;;8.75;3.83;;;22.90;76.70;;;;;;4933740;28;20211;-79
2022/07/11 05:33:08;;;;;;;5.90;3.92;;;22.90;76.60;;;;;;4943495;28;20573;-78
2022/07/11 05:35:36;;;;;;;8.20;3.85;;;22.90;76.70;;;;;;4940444;28;20627;-79
2022/07/11 05:38:05;;;;;;;5.85;3.30;;;23.00;76.90;;;;;;4943357;28;20214;-79
2022/07/11 05:40:34;;;;;;;4.47;2.85;;;23.00;76.70;;;;;;4940234;28;20290;-76
2022/07/11 05:43:04;;;;;;;6.47;3.13;;;22.90;76.00;;;;;;4942096;28;20210;-78
2022/07/11 05:45:32;;;;;;;12.68;3.75;;;23.00;75.80;;;;;;4942145;28;20257;-78
2022/07/11 05:48:00;;;;;;;3.58;2.65;;;23.00;75.80;;;;;;4945606;28;20201;-79
2022/07/11 05:50:29;;;;;;;6.05;3.28;;;23.00;75.60;;;;;;4944753;28;20285;-75
2022/07/11 05:52:58;;;;;;;7.57;3.35;;;23.10;75.70;;;;;;4945707;28;20202;-78
2022/07/11 05:55:27;;;;;;;4.43;2.65;;;23.20;75.70;;;;;;4945577;28;20877;-77
2022/07/11 05:57:55;;;;;;;7.50;2.80;;;23.20;75.80;;;;;;4946414;29;20230;-78
2022/07/11 06:00:27;;;;;;;4.47;3.03;;;23.20;75.40;;;;;;4944790;28;20202;-78
2022/07/11 06:02:56;;;;;;;3.67;2.55;;;23.20;75.20;;;;;;4934847;28;20244;-78
2022/07/11 06:05:24;;;;;;;5.85;2.80;;;23.30;75.10;;;;;;4941408;28;20277;-78
2022/07/11 06:10:39;;;;;;;6.15;2.65;;;23.20;74.50;;;;;;4942748;28;20230;-78
2022/07/11 06:13:07;;;;;;;6.28;3.53;;;23.30;74.70;;;;;;4940691;28;20203;-77
2022/07/11 06:15:38;;;;;;;5.55;3.10;;;23.30;74.60;;;;;;4943192;28;20696;-78
2022/07/11 06:18:06;;;;;;;6.15;2.85;;;23.30;74.20;;;;;;4944304;28;20221;-78
2022/07/11 06:20:35;;;;;;;5.95;3.97;;;23.30;74.00;;;;;;4934723;28;20294;-77
2022/07/11 06:23:05;;;;;;;5.68;3.20;;;23.30;74.10;;;;;;4946680;28;20438;-78
2022/07/11 06:25:33;;;;;;;5.88;3.72;;;23.30;74.30;;;;;;4946335;29;20202;-78
2022/07/11 06:28:02;;;;;;;5.38;3.28;;;23.40;74.50;;;;;;4945868;28;20206;-78
2022/07/11 06:30:31;;;;;;;5.53;3.22;;;23.40;74.70;;;;;;4946275;28;20198;-79
2022/07/11 06:33:01;;;;;;;6.00;3.03;;;23.50;74.70;;;;;;4945467;28;20935;-77
2022/07/11 06:35:29;;;;;;;6.15;3.60;;;23.50;75.50;;;;;;4946245;28;20206;-78
2022/07/11 06:37:57;;;;;;;5.93;3.20;;;23.50;74.40;;;;;;4945692;29;20920;-78
2022/07/11 06:40:26;;;;;;;7.82;4.15;;;23.50;74.10;;;;;;4946296;29;20245;-79
2022/07/11 06:42:54;;;;;;;6.50;3.35;;;23.60;74.10;;;;;;4945506;28;20213;-79
2022/07/11 06:45:23;;;;;;;4.97;3.47;;;23.60;74.20;;;;;;4945868;29;20557;-78
2022/07/11 06:47:52;;;;;;;6.68;3.50;;;23.60;74.30;;;;;;4945218;28;20202;-80
2022/07/11 06:50:22;;;;;;;6.25;3.95;;;23.70;74.40;;;;;;4945941;29;20206;-77
2022/07/11 06:52:51;;;;;;;6.65;4.43;;;23.70;74.30;;;;;;4945346;28;20210;-81
2022/07/11 06:55:19;;;;;;;7.55;3.90;;;23.70;74.70;;;;;;4945244;29;20213;-78
2022/07/11 06:57:49;;;;;;;6.20;3.83;;;23.70;75.10;;;;;;4943272;28;20206;-78
2022/07/11 07:00:38;;;;;;;12.30;4.28;;;23.70;75.00;;;;;;4945204;28;20250;-78
2022/07/11 07:03:08;;;;;;;6.03;4.40;;;23.80;75.00;;;;;;4940068;28;20313;-75
2022/07/11 07:05:48;;;;;;;7.55;4.00;;;23.80;74.80;;;;;;4945308;29;20289;-79
2022/07/11 07:08:17;;;;;;;7.15;3.97;;;23.80;74.60;;;;;;4943969;28;20202;-79
2022/07/11 07:10:45;;;;;;;6.45;3.85;;;23.80;74.50;;;;;;4945899;29;20216;-79
2022/07/11 07:13:14;;;;;;;5.68;4.20;;;23.80;74.60;;;;;;4943781;28;20205;-78
2022/07/11 07:15:42;;;;;;;10.07;4.03;;;23.80;74.30;;;;;;4945612;29;20210;-78
2022/07/11 07:18:11;;;;;;;7.45;3.60;;;23.90;74.20;;;;;;4942317;28;20199;-78
2022/07/11 07:20:40;;;;;;;6.07;3.63;;;23.90;74.30;;;;;;4942489;29;20206;-78
2022/07/11 07:23:09;;;;;;;5.50;3.78;;;23.90;74.20;;;;;;4942736;28;20203;-79
2022/07/11 07:25:38;;;;;;;8.35;3.00;;;23.90;73.90;;;;;;4945558;29;20225;-78
2022/07/11 07:28:07;;;;;;;6.25;3.85;;;23.90;73.60;;;;;;4943665;28;20293;-77
2022/07/11 07:30:35;;;;;;;5.80;3.42;;;23.90;73.60;;;;;;4947891;29;20207;-78
2022/07/11 07:33:04;;;;;;;9.77;3.47;;;24.00;73.10;;;;;;4945397;28;20784;-79
2022/07/11 07:35:32;;;;;;;7.03;3.03;;;24.00;73.00;;;;;;4949122;29;20415;-79
2022/07/11 07:38:01;;;;;;;4.70;3.47;;;24.00;73.00;;;;;;4947764;28;20206;-78
2022/07/11 07:40:33;;;;;;;3.72;2.92;;;24.10;73.00;;;;;;4948401;29;20197;-77
2022/07/11 07:43:06;;;;;;;5.10;2.70;;;24.10;72.10;;;;;;4948644;29;20217;-78
2022/07/11 07:45:35;;;;;;;5.53;3.08;;;24.10;71.50;;;;;;4948594;29;20269;-78
2022/07/11 07:48:04;;;;;;;6.13;2.75;;;24.10;71.10;;;;;;4946522;28;20202;-77
2022/07/11 07:50:32;;;;;;;4.32;2.92;;;24.10;70.90;;;;;;4947270;28;20206;-77
2022/07/11 07:53:01;;;;;;;5.35;2.78;;;24.10;70.50;;;;;;4933623;29;20210;-78
2022/07/11 07:55:29;;;;;;;5.03;2.42;;;24.00;70.10;;;;;;4948740;29;20269;-78
2022/07/11 07:57:59;;;;;;;4.30;2.50;;;24.10;69.90;;;;;;4948631;29;20206;-78
2022/07/11 08:03:13;;;;;;;6.07;2.55;;;24.10;71.30;;;;;;4943063;28;20695;-78
2022/07/11 08:05:41;;;;;;;5.15;2.47;;;24.10;70.30;;;;;;4947271;28;20884;-79
2022/07/11 08:08:10;;;;;;;3.70;2.38;;;24.10;70.10;;;;;;4947511;28;20207;-78
2022/07/11 08:11:28;;;;;;;6.05;2.30;;;24.20;70.00;;;;;;4947208;29;20233;-80
2022/07/11 08:14:01;;;;;;;6.05;2.00;;;24.30;70.20;;;;;;4947846;29;20301;-78
2022/07/11 08:16:32;;;;;;;3.38;2.13;;;24.40;70.10;;;;;;4946647;28;20290;-78
2022/07/11 08:19:04;;;;;;;4.07;2.25;;;24.50;70.10;;;;;;4947388;28;20222;-78
2022/07/11 08:21:34;;;;;;;4.07;2.40;;;24.50;69.40;;;;;;4944311;28;20273;-78
2022/07/11 08:24:04;;;;;;;5.53;2.50;;;24.60;69.20;;;;;;4944227;28;20195;-77
2022/07/11 08:26:33;;;;;;;5.55;2.60;;;24.70;69.50;;;;;;4948306;29;20285;-78
2022/07/11 08:29:04;;;;;;;4.97;2.25;;;24.80;69.50;;;;;;4947576;28;20190;-79
2022/07/11 08:31:33;;;;;;;2.83;2.05;;;24.80;68.30;;;;;;4945362;28;20208;-77
2022/07/11 08:34:02;;;;;;;5.82;2.75;;;24.80;67.70;;;;;;4944980;28;20210;-77
2022/07/11 08:36:34;;;;;;;3.08;1.77;;;24.90;67.50;;;;;;4945308;28;20201;-78
2022/07/11 08:39:59;;;;;;;4.50;2.08;;;24.90;67.50;;;;;;4946571;29;20207;-78
2022/07/11 08:42:30;;;;;;;3.83;2.25;;;25.00;66.80;;;;;;4900507;29;20242;-79
2022/07/11 08:45:01;;;;;;;4.25;2.58;;;25.00;64.70;;;;;;4947023;29;20865;-77
2022/07/11 08:47:31;;;;;;;8.60;1.92;;;24.90;64.60;;;;;;4946778;29;20257;-78
2022/07/11 08:53:23;;;;;;;6.78;2.97;;;25.00;65.10;;;;;;4946900;29;20862;-77
2022/07/11 08:55:53;;;;;;;2.90;2.13;;;25.00;65.70;;;;;;4943245;29;20273;-75
2022/07/11 08:58:24;;;;;;;3.03;2.28;;;25.00;64.60;;;;;;4944197;29;20214;-76
2022/07/11 09:00:54;;;;;;;3.20;1.85;;;25.00;64.60;;;;;;4942053;28;20214;-76
2022/07/11 09:03:24;;;;;;;2.88;2.22;;;25.00;64.70;;;;;;4940547;28;20227;-75
2022/07/11 09:05:53;;;;;;;4.80;2.03;;;25.10;64.70;;;;;;4936129;28;20653;-77
2022/07/11 09:08:31;;;;;;;2.78;1.67;;;25.10;64.10;;;;;;4940763;28;20198;-78
2022/07/11 09:11:00;;;;;;;3.63;1.60;;;25.10;63.20;;;;;;4940985;28;20781;-76
2022/07/11 09:13:30;;;;;;;3.85;1.67;;;25.20;62.50;;;;;;4952992;28;20207;-75
2022/07/11 09:16:05;;;;;;;2.97;2.15;;;25.20;62.20;;;;;;4943437;28;20203;-75
2022/07/11 09:18:35;;;;;;;4.47;2.10;;;25.30;62.70;;;;;;4939050;28;20190;-76
2022/07/11 09:26:42;;;;;;;4.90;1.85;;;25.50;61.80;;;;;;4941323;28;20222;-77
2022/07/11 09:29:12;;;;;;;2.53;1.65;;;25.50;60.70;;;;;;4941854;28;20269;-74
2022/07/11 09:31:44;;;;;;;3.63;1.95;;;25.50;60.80;;;;;;4945803;28;20623;-78
2022/07/11 09:34:15;;;;;;;3.42;1.50;;;25.50;60.50;;;;;;4944148;29;20595;-78
2022/07/11 09:36:45;;;;;;;2.85;1.67;;;25.60;59.90;;;;;;4947172;28;20592;-76
2022/07/11 09:39:15;;;;;;;2.03;1.50;;;25.60;59.30;;;;;;4938804;28;20198;-76
2022/07/11 09:41:46;;;;;;;2.38;1.55;;;25.60;59.00;;;;;;4945548;29;20217;-76
2022/07/11 09:44:17;;;;;;;3.00;1.80;;;25.70;59.20;;;;;;4942686;28;20241;-76
2022/07/11 09:46:49;;;;;;;3.05;1.85;;;25.70;59.60;;;;;;4943031;28;20649;-76
2022/07/11 09:49:30;;;;;;;3.55;1.90;;;25.80;60.00;;;;;;4944411;29;20195;-75
2022/07/11 09:52:08;;;;;;;2.92;2.10;;;25.80;59.70;;;;;;4941327;29;20202;-75
2022/07/11 09:54:56;;;;;;;5.20;2.15;;;25.80;60.40;;;;;;4944237;28;20202;-76
2022/07/11 09:57:32;;;;;;;4.40;2.22;;;25.90;60.80;;;;;;4944413;29;20205;-78
2022/07/11 10:00:25;;;;;;;5.20;2.28;;;25.80;60.80;;;;;;4942148;28;20558;-75
2022/07/11 10:02:56;;;;;;;4.20;1.92;;;25.80;60.60;;;;;;4945734;28;20294;-77
2022/07/11 10:05:26;;;;;;;3.00;2.15;;;25.90;60.70;;;;;;4946432;28;20198;-77
2022/07/11 10:07:55;;;;;;;4.80;1.92;;;25.90;60.70;;;;;;4940093;28;20313;-77
2022/07/11 10:10:24;;;;;;;3.45;2.40;;;25.90;60.90;;;;;;4943982;28;20198;-78
2022/07/11 10:12:59;;;;;;;3.40;2.20;;;26.00;61.10;;;;;;4939246;28;20230;-80
2022/07/11 10:15:32;;;;;;;4.65;1.90;;;26.10;60.80;;;;;;4942726;28;20194;-78
2022/07/11 10:18:10;;;;;;;2.97;1.77;;;26.10;60.40;;;;;;4943307;28;20888;-76
2022/07/11 10:20:47;;;;;;;3.78;2.20;;;26.10;60.00;;;;;;4938748;29;20213;-78
2022/07/11 10:23:23;;;;;;;4.20;1.98;;;26.10;60.30;;;;;;4944868;28;20261;-78
2022/07/11 10:25:58;;;;;;;7.65;2.13;;;26.20;61.60;;;;;;4944336;28;20774;-77
2022/07/11 10:28:34;;;;;;;4.60;2.00;;;26.30;60.80;;;;;;4936092;29;20194;-77
2022/07/11 10:31:03;;;;;;;4.57;2.13;;;26.40;60.10;;;;;;4938140;28;20197;-78
2022/07/11 10:33:33;;;;;;;4.00;1.80;;;26.50;60.20;;;;;;4944978;28;20206;-75
2022/07/11 10:36:01;;;;;;;5.40;3.03;;;26.50;60.30;;;;;;4944156;29;20206;-77
2022/07/11 10:38:30;;;;;;;3.25;1.90;;;26.60;60.30;;;;;;4944375;29;20205;-77
2022/07/11 10:40:59;;;;;;;4.93;1.80;;;26.70;60.10;;;;;;4943979;29;20214;-78
2022/07/11 10:43:38;;;;;;;2.80;1.77;;;26.80;59.90;;;;;;4944761;29;20206;-77
2022/07/11 10:46:08;;;;;;;4.72;2.42;;;26.80;59.50;;;;;;4939469;28;20608;-74
2022/07/11 10:48:56;;;;;;;6.57;2.00;;;26.80;58.80;;;;;;4932788;28;20652;-78
2022/07/11 10:51:29;;;;;;;2.45;1.70;;;26.80;58.80;;;;;;4941550;28;20197;-78
2022/07/11 10:54:05;;;;;;;3.03;1.75;;;26.90;59.30;;;;;;4941407;29;20282;-80
2022/07/11 10:57:02;;;;;;;4.57;1.60;;;27.00;59.30;;;;;;4942820;28;20232;-78
2022/07/11 10:59:31;;;;;;;3.38;1.85;;;27.10;58.90;;;;;;4941879;28;20195;-80
2022/07/11 11:02:12;;;;;;;3.75;1.20;;;27.20;59.00;;;;;;4941829;28;20228;-78
2022/07/11 11:05:01;;;;;;;2.35;1.38;;;27.20;57.20;;;;;;4946776;28;20245;-81
2022/07/11 11:07:35;;;;;;;2.03;1.00;;;27.20;57.30;;;;;;4947015;29;20598;-79
2022/07/11 11:10:20;;;;;;;1.90;1.20;;;27.20;57.70;;;;;;4948017;28;20808;-82
2022/07/11 11:13:11;;;;;;;2.67;1.30;;;27.20;57.60;;;;;;4929919;28;20220;-80
2022/07/11 11:15:42;;;;;;;3.33;1.30;;;27.40;57.90;;;;;;4946529;28;20202;-80
2022/07/11 11:18:42;;;;;;;1.25;1.00;;;27.50;58.40;;;;;;4946446;28;20293;-77
2022/07/11 11:21:20;;;;;;;3.30;1.23;;;27.70;57.40;;;;;;4902956;29;20231;-77
2022/07/11 11:24:08;;;;;;;1.40;1.30;;;27.80;57.30;;;;;;4948593;29;20198;-77
2022/07/11 11:26:51;;;;;;;1.25;1.00;;;27.90;56.60;;;;;;4942185;28;20198;-78
2022/07/11 11:29:29;;;;;;;0.88;0.75;;;28.00;56.30;;;;;;4945890;29;20285;-78
2022/07/11 11:32:00;;;;;;;1.73;1.20;;;28.00;54.80;;;;;;4946064;28;20193;-78
2022/07/11 11:34:30;;;;;;;2.97;1.20;;;28.20;55.30;;;;;;4943249;29;20218;-78
2022/07/11 11:37:02;;;;;;;1.80;1.00;;;28.20;53.30;;;;;;4944440;28;20209;-78
2022/07/11 11:39:33;;;;;;;5.18;1.10;;;28.30;54.00;;;;;;4949945;28;20249;-78
2022/07/11 11:42:21;;;;;;;1.20;0.98;;;28.20;53.70;;;;;;4944650;28;20222;-75
2022/07/11 11:44:55;;;;;;;2.10;1.27;;;28.20;52.10;;;;;;4948279;28;20190;-76
2022/07/11 11:47:25;;;;;;;2.03;1.25;;;28.20;52.60;;;;;;4943918;28;20202;-77
2022/07/11 11:49:53;;;;;;;1.92;1.10;;;28.10;53.00;;;;;;4949678;28;20202;-77
2022/07/11 11:52:24;;;;;;;2.13;1.05;;;28.10;52.70;;;;;;4947675;28;20191;-78
2022/07/11 11:54:55;;;;;;;1.70;1.00;;;28.10;52.10;;;;;;4944257;28;20213;-76
2022/07/11 11:57:26;;;;;;;1.00;0.82;;;28.00;51.50;;;;;;4940767;29;20194;-77
2022/07/11 11:59:56;;;;;;;3.88;1.20;;;28.00;52.10;;;;;;4945775;28;20209;-77
2022/07/11 12:02:27;;;;;;;2.17;1.00;;;28.00;52.40;;;;;;4941601;28;20231;-78
2022/07/11 12:04:56;;;;;;;2.45;1.00;;;28.10;52.30;;;;;;4939364;28;20235;-77
2022/07/11 12:07:30;;;;;;;2.38;1.20;;;28.20;51.60;;;;;;4934752;28;20198;-78
2022/07/11 12:10:03;;;;;;;1.98;1.05;;;28.30;51.60;;;;;;4937936;28;20851;-78
2022/07/11 12:12:48;;;;;;;1.30;0.85;;;28.40;51.70;;;;;;4942347;28;20365;-77
2022/07/11 12:15:31;;;;;;;1.90;0.95;;;28.30;50.30;;;;;;4943486;28;20202;-77
2022/07/11 12:18:03;;;;;;;6.13;1.17;;;28.40;51.10;;;;;;4928526;28;20374;-78
2022/07/11 12:20:36;;;;;;;3.53;1.02;;;28.50;50.90;;;;;;4931974;29;20202;-78
2022/07/11 12:23:08;;;;;;;1.23;1.05;;;28.50;51.00;;;;;;4944659;29;20207;-77
2022/07/11 12:25:46;;;;;;;1.60;0.90;;;28.50;51.00;;;;;;4942408;28;20528;-78
2022/07/11 12:28:14;;;;;;;3.05;1.20;;;28.50;49.80;;;;;;4944705;28;20207;-77
2022/07/11 12:30:43;;;;;;;2.58;1.00;;;28.50;49.70;;;;;;4952793;28;20198;-78
2022/07/11 12:33:14;;;;;;;2.38;0.90;;;28.50;48.30;;;;;;4939543;28;20292;-76
2022/07/11 12:35:58;;;;;;;1.20;0.90;;;28.50;48.60;;;;;;4932369;28;20225;-76
2022/07/11 12:38:43;;;;;;;3.00;0.90;;;28.50;49.00;;;;;;4935426;28;20209;-76
2022/07/11 12:41:11;;;;;;;0.90;0.70;;;28.50;49.30;;;;;;4944142;28;20217;-77
2022/07/11 12:46:30;;;;;;;1.35;0.82;;;28.40;48.90;;;;;;4946627;28;20199;-81
2022/07/11 12:49:01;;;;;;;1.92;0.95;;;28.40;48.50;;;;;;4942542;28;20211;-80
2022/07/11 12:51:31;;;;;;;1.88;1.27;;;28.40;48.50;;;;;;4960361;28;20204;-77
2022/07/11 12:54:02;;;;;;;2.38;1.52;;;28.20;50.60;;;;;;4938071;28;20680;-80
2022/07/11 12:56:31;;;;;;;3.47;1.30;;;28.00;51.90;;;;;;4937764;28;20202;-79
2022/07/11 12:59:01;;;;;;;1.85;1.05;;;27.90;52.60;;;;;;4945066;28;20202;-80
2022/07/11 13:01:54;;;;;;;2.30;1.30;;;27.80;53.10;;;;;;4945528;28;20298;-82
2022/07/11 13:04:34;;;;;;;2.45;1.30;;;27.60;53.40;;;;;;4949219;28;20569;-78
2022/07/11 13:10:16;;;;;;;2.33;1.20;;;27.20;53.90;;;;;;4946034;28;20198;-79
2022/07/11 13:12:47;;;;;;;2.35;1.45;;;27.20;54.20;;;;;;4947701;28;20203;-79
2022/07/11 13:15:17;;;;;;;1.83;1.40;;;27.10;54.40;;;;;;4948897;28;20194;-80
2022/07/11 13:17:47;;;;;;;3.15;1.30;;;27.00;54.60;;;;;;4947892;29;20199;-79
2022/07/11 13:20:19;;;;;;;4.47;1.20;;;27.00;55.10;;;;;;4947468;28;20198;-79
2022/07/11 13:22:49;;;;;;;4.32;1.25;;;27.00;55.10;;;;;;4947449;28;20217;-76
2022/07/11 13:25:21;;;;;;;1.67;1.17;;;27.00;55.10;;;;;;4942929;28;20198;-79